Time;durP1;ratioP1;P1;durP2;ratioP2;P2;SDS_P1;SDS_P2;PMS_P1;PMS_P2;Temp;Humidity;BMP_temperature;BMP_pressure;BME280_temperature;BME280_humidity;BME280_pressure;Samples;Min_cycle;Max_cycle;Signal;HPM_P1;HPM_P2
2023/07/13 00:01:16;;;;;;;3.95;2.10;;;28.60;31.60;;;;;;21084232;28;20036;-58
2023/07/13 00:11:17;;;;;;;5.50;2.38;;;28.60;31.50;;;;;;21093045;28;20511;-59
2023/07/13 00:21:19;;;;;;;3.90;2.22;;;28.50;31.80;;;;;;21091679;28;20084;-59
2023/07/13 00:31:19;;;;;;;3.17;1.83;;;28.40;32.20;;;;;;21091554;28;20051;-58
2023/07/13 00:41:20;;;;;;;3.13;1.88;;;28.30;32.20;;;;;;21090922;28;20044;-59
2023/07/13 00:51:25;;;;;;;2.83;1.80;;;28.30;32.60;;;;;;21089953;28;20161;-58
2023/07/13 01:01:26;;;;;;;4.90;2.03;;;28.10;33.10;;;;;;21089299;28;20532;-58
2023/07/13 01:11:27;;;;;;;;;;;28.10;33.80;;;;;;21087156;28;20040;-59
2023/07/13 01:21:31;;;;;;;4.53;1.83;;;27.90;34.40;;;;;;21086767;28;19931;-58
2023/07/13 01:31:32;;;;;;;4.35;1.50;;;27.80;35.10;;;;;;21085501;28;20101;-59
2023/07/13 01:41:33;;;;;;;;;;;27.80;35.40;;;;;;21086447;28;20040;-58
2023/07/13 01:51:33;;;;;;;3.20;1.40;;;27.70;35.50;;;;;;21083821;28;19919;-58
2023/07/13 02:01:34;;;;;;;3.77;1.40;;;27.70;36.10;;;;;;21084318;28;20047;-59
2023/07/13 02:11:35;;;;;;;2.55;1.40;;;27.60;36.30;;;;;;21083331;28;20050;-57
2023/07/13 02:21:36;;;;;;;4.37;2.50;;;27.40;36.70;;;;;;21081442;28;20121;-58
2023/07/13 02:31:36;;;;;;;3.03;1.53;;;27.30;37.10;;;;;;21081798;28;20044;-59
2023/07/13 02:41:37;;;;;;;2.43;1.33;;;27.10;37.40;;;;;;21081402;28;20082;-59
2023/07/13 02:51:38;;;;;;;3.00;1.60;;;27.20;37.10;;;;;;21080544;28;20048;-59
2023/07/13 03:01:39;;;;;;;4.80;1.60;;;27.20;33.10;;;;;;21079832;28;20036;-58
2023/07/13 03:11:39;;;;;;;3.87;1.53;;;27.30;32.90;;;;;;21079440;28;20048;-58
2023/07/13 03:21:40;;;;;;;3.77;1.70;;;27.40;33.20;;;;;;21078973;28;20063;-59
2023/07/13 03:31:41;;;;;;;3.07;1.80;;;27.30;33.30;;;;;;21078673;28;20051;-60
2023/07/13 03:41:41;;;;;;;4.43;1.83;;;27.20;33.50;;;;;;21095014;28;20040;-59
2023/07/13 03:51:42;;;;;;;6.37;3.53;;;27.00;33.80;;;;;;21094425;28;20106;-58
2023/07/13 04:01:43;;;;;;;4.37;2.37;;;26.90;33.90;;;;;;21093830;28;20165;-59
2023/07/13 04:11:44;;;;;;;;;;;26.80;34.70;;;;;;21075660;28;20048;-59
2023/07/13 04:21:45;;;;;;;4.78;2.17;;;26.60;35.20;;;;;;21092139;28;19927;-58
2023/07/13 04:31:46;;;;;;;5.77;3.40;;;26.50;37.10;;;;;;21091676;28;20040;-59
2023/07/13 04:41:47;;;;;;;7.80;4.00;;;26.30;38.30;;;;;;21091141;28;20460;-59
2023/07/13 04:51:48;;;;;;;5.63;2.53;;;26.20;39.10;;;;;;21089795;28;20102;-58
2023/07/13 05:01:48;;;;;;;3.23;1.90;;;26.10;39.40;;;;;;21089518;28;20079;-58
2023/07/13 05:11:49;;;;;;;8.27;2.37;;;25.70;38.60;;;;;;21088541;28;20101;-59
2023/07/13 05:21:50;;;;;;;5.03;2.13;;;25.20;39.30;;;;;;21087025;28;20118;-58
2023/07/13 05:31:51;;;;;;;4.87;2.50;;;25.00;39.40;;;;;;21085170;28;20123;-59
2023/07/13 05:41:51;;;;;;;7.83;2.43;;;25.00;39.90;;;;;;21083942;28;20075;-59
2023/07/13 05:51:52;;;;;;;5.90;2.00;;;24.80;40.60;;;;;;21084576;28;20075;-58
2023/07/13 06:01:53;;;;;;;6.20;2.60;;;24.90;40.70;;;;;;21081626;28;20146;-58
2023/07/13 06:11:54;;;;;;;8.33;3.20;;;24.70;41.40;;;;;;21081537;28;20044;-58
2023/07/13 06:21:54;;;;;;;5.10;2.70;;;24.90;41.70;;;;;;21080736;28;20048;-58
2023/07/13 06:31:55;;;;;;;6.73;3.20;;;25.20;41.60;;;;;;21081415;28;20044;-58
2023/07/13 06:41:56;;;;;;;8.83;3.60;;;25.30;41.70;;;;;;21079575;28;20127;-59
2023/07/13 06:51:57;;;;;;;10.83;2.93;;;25.40;41.90;;;;;;21078681;28;20074;-59
2023/07/13 07:01:57;;;;;;;8.47;3.13;;;25.60;42.30;;;;;;21079557;28;20527;-59
2023/07/13 07:11:58;;;;;;;8.00;3.00;;;26.20;41.70;;;;;;21077310;28;20074;-59
2023/07/13 07:21:59;;;;;;;8.77;3.53;;;27.10;40.40;;;;;;21077969;28;20135;-59
2023/07/13 07:32:00;;;;;;;7.57;3.47;;;27.70;39.60;;;;;;21076594;28;20048;-58
2023/07/13 07:42:01;;;;;;;13.02;3.10;;;28.20;38.70;;;;;;21077847;28;20077;-59
2023/07/13 07:52:02;;;;;;;8.43;3.33;;;28.60;38.40;;;;;;21076831;28;20129;-58
2023/07/13 08:02:02;;;;;;;10.48;3.03;;;29.10;37.80;;;;;;21076935;28;20109;-59
2023/07/13 08:12:04;;;;;;;9.80;3.33;;;29.30;37.50;;;;;;21076617;28;20150;-59
2023/07/13 08:22:04;;;;;;;7.72;3.00;;;29.60;36.90;;;;;;21082021;28;20074;-59
2023/07/13 08:32:09;;;;;;;10.15;3.97;;;29.90;37.00;;;;;;21091293;28;20150;-59
2023/07/13 08:42:34;;;;;;;7.53;3.33;;;30.20;36.30;;;;;;21089803;28;20054;-59
2023/07/13 08:52:40;;;;;;;6.68;3.15;;;30.70;35.10;;;;;;21089057;28;20044;-59
2023/07/13 09:02:45;;;;;;;9.00;2.92;;;31.00;34.50;;;;;;21088546;28;20044;-58
2023/07/13 09:13:04;;;;;;;4.28;2.38;;;31.00;34.30;;;;;;21088251;28;20138;-59
2023/07/13 09:23:12;;;;;;;4.28;2.35;;;31.10;33.00;;;;;;21087169;28;20055;-58
2023/07/13 09:33:14;;;;;;;4.60;2.20;;;31.20;32.20;;;;;;21086428;28;20502;-59
2023/07/13 09:43:16;;;;;;;5.15;2.13;;;31.40;32.00;;;;;;21084838;28;20084;-58
2023/07/13 09:53:19;;;;;;;6.70;2.00;;;31.60;31.50;;;;;;21084994;28;20083;-59
2023/07/13 10:03:37;;;;;;;3.88;2.05;;;31.70;30.80;;;;;;21083703;28;20040;-59
2023/07/13 10:13:44;;;;;;;3.60;2.20;;;31.90;30.30;;;;;;21081285;28;20036;-58
2023/07/13 10:23:49;;;;;;;3.60;2.10;;;32.10;30.20;;;;;;21082012;28;20113;-59
2023/07/13 10:33:50;;;;;;;7.05;2.20;;;31.80;29.50;;;;;;21080525;28;20076;-59
2023/07/13 10:43:54;;;;;;;5.10;2.45;;;31.90;30.10;;;;;;21080952;28;20089;-58
2023/07/13 10:54:26;;;;;;;7.57;2.40;;;32.30;29.40;;;;;;21078304;28;20092;-58
2023/07/13 11:04:38;;;;;;;5.30;2.63;;;32.60;28.80;;;;;;21078692;28;20084;-60
2023/07/13 11:14:55;;;;;;;4.60;2.65;;;32.40;29.20;;;;;;21077214;28;20100;-60
2023/07/13 11:25:00;;;;;;;5.35;2.60;;;32.60;28.50;;;;;;21079008;28;20075;-58
2023/07/13 11:35:01;;;;;;;3.83;2.10;;;32.90;27.90;;;;;;21078099;28;20074;-59
2023/07/13 11:45:01;;;;;;;4.18;2.10;;;32.80;27.80;;;;;;21075977;28;20048;-59
2023/07/13 11:55:13;;;;;;;5.60;2.30;;;32.90;27.40;;;;;;21080052;28;20048;-59
2023/07/13 12:05:15;;;;;;;5.78;2.28;;;33.20;27.20;;;;;;21093282;28;20047;-59
2023/07/13 12:15:16;;;;;;;2.97;2.30;;;33.00;27.60;;;;;;21092425;28;20036;-58
2023/07/13 12:25:19;;;;;;;3.42;1.98;;;33.10;26.40;;;;;;21090110;28;20056;-60
2023/07/13 12:35:19;;;;;;;3.30;1.77;;;33.40;25.70;;;;;;21091120;28;20051;-60
2023/07/13 12:45:24;;;;;;;3.83;1.70;;;33.10;25.20;;;;;;21088812;28;20048;-59
2023/07/13 12:55:25;;;;;;;6.97;2.00;;;33.70;24.10;;;;;;21091009;28;20114;-58
2023/07/13 13:05:26;;;;;;;3.08;1.60;;;33.60;25.00;;;;;;21088933;28;20119;-58
2023/07/13 13:15:28;;;;;;;4.22;2.17;;;33.80;24.60;;;;;;21088305;28;20040;-56
2023/07/13 13:25:28;;;;;;;2.97;2.00;;;34.10;24.80;;;;;;21087107;28;20127;-58
2023/07/13 13:35:29;;;;;;;3.33;1.70;;;33.80;24.90;;;;;;21085084;28;20082;-57
2023/07/13 13:45:31;;;;;;;2.30;1.73;;;34.00;25.10;;;;;;21084916;28;20070;-59
2023/07/13 13:55:32;;;;;;;2.67;1.60;;;34.30;24.40;;;;;;21084493;28;20386;-57
2023/07/13 14:05:33;;;;;;;3.80;1.80;;;34.10;24.40;;;;;;21082245;28;20044;-58
2023/07/13 14:15:33;;;;;;;2.17;1.50;;;34.20;23.80;;;;;;21082719;28;20066;-58
2023/07/13 14:25:35;;;;;;;2.78;1.63;;;34.50;23.10;;;;;;21080488;28;20056;-59
2023/07/13 14:35:35;;;;;;;2.67;1.73;;;34.60;22.50;;;;;;21080055;28;20090;-58
2023/07/13 14:45:42;;;;;;;2.70;1.52;;;34.90;22.50;;;;;;21080413;28;20481;-59
2023/07/13 14:55:43;;;;;;;4.25;1.75;;;34.60;22.60;;;;;;21078705;28;20052;-57
2023/07/13 15:05:44;;;;;;;3.28;1.90;;;34.80;22.40;;;;;;21077957;28;20124;-57
2023/07/13 15:15:52;;;;;;;3.38;1.60;;;34.80;23.10;;;;;;21078941;28;20083;-58
2023/07/13 15:25:53;;;;;;;2.42;1.45;;;34.80;22.50;;;;;;21078726;28;20387;-58
2023/07/13 15:35:54;;;;;;;3.00;1.85;;;34.80;21.80;;;;;;21102365;28;20122;-58
2023/07/13 15:45:55;;;;;;;3.42;1.30;;;34.70;22.40;;;;;;21105965;28;20538;-59
2023/07/13 15:55:57;;;;;;;2.50;1.50;;;35.00;20.80;;;;;;21104053;28;20102;-58
2023/07/13 16:05:58;;;;;;;4.47;3.40;;;35.10;21.10;;;;;;21103830;28;20390;-58
2023/07/13 16:15:59;;;;;;;3.42;1.50;;;35.10;20.80;;;;;;21104921;28;20048;-58
2023/07/13 16:26:00;;;;;;;2.90;1.40;;;35.00;20.50;;;;;;21102519;28;20056;-57
2023/07/13 16:36:01;;;;;;;3.22;1.50;;;35.30;19.50;;;;;;21104276;28;20153;-58
2023/07/13 16:46:03;;;;;;;2.13;1.40;;;35.20;20.10;;;;;;21091316;28;20127;-57
2023/07/13 16:56:14;;;;;;;5.60;4.70;;;35.10;20.40;;;;;;21088741;28;20063;-58
2023/07/13 17:06:23;;;;;;;2.35;1.70;;;35.10;20.20;;;;;;21086681;28;20481;-57
2023/07/13 17:16:25;;;;;;;4.57;2.90;;;35.10;20.20;;;;;;21087145;28;20546;-55
2023/07/13 17:26:25;;;;;;;1.88;1.25;;;35.00;20.40;;;;;;21085037;28;20052;-58
2023/07/13 17:36:28;;;;;;;3.42;1.45;;;35.00;19.80;;;;;;21087016;28;20047;-59
2023/07/13 17:46:32;;;;;;;3.10;1.20;;;34.80;20.00;;;;;;21085664;28;20048;-56
2023/07/13 17:56:34;;;;;;;2.47;1.70;;;34.70;20.30;;;;;;21082937;28;20075;-57
2023/07/13 18:06:37;;;;;;;3.10;2.00;;;34.70;20.70;;;;;;21082838;28;20118;-57
2023/07/13 18:16:39;;;;;;;2.65;1.30;;;34.60;20.80;;;;;;21082762;28;20080;-57
2023/07/13 18:26:40;;;;;;;2.88;1.60;;;34.60;21.30;;;;;;21082511;28;20052;-57
2023/07/13 18:36:45;;;;;;;9.55;2.40;;;34.40;21.70;;;;;;21081311;28;20521;-57
2023/07/13 18:46:46;;;;;;;4.57;2.03;;;34.30;22.50;;;;;;21081054;28;20066;-58
2023/07/13 18:56:48;;;;;;;3.50;2.17;;;34.10;22.80;;;;;;21079619;28;20173;-58
2023/07/13 19:06:48;;;;;;;2.42;1.90;;;34.00;23.20;;;;;;21079615;28;20044;-57
2023/07/13 19:16:49;;;;;;;3.72;2.20;;;33.80;23.60;;;;;;21079270;28;20113;-58
2023/07/13 19:26:52;;;;;;;3.40;2.40;;;33.70;24.00;;;;;;21077734;28;20093;-58
2023/07/13 19:37:04;;;;;;;3.78;1.98;;;33.50;24.40;;;;;;21076947;28;20112;-57
2023/07/13 19:47:14;;;;;;;5.43;2.60;;;33.40;24.70;;;;;;21077360;28;20048;-58
2023/07/13 19:57:17;;;;;;;4.93;2.95;;;33.20;25.40;;;;;;21078291;28;20048;-56
2023/07/13 20:07:20;;;;;;;5.55;2.80;;;33.00;26.30;;;;;;21078224;28;20463;-58
2023/07/13 20:17:35;;;;;;;7.93;3.63;;;32.80;26.80;;;;;;21083137;28;20073;-56
2023/07/13 20:27:36;;;;;;;4.95;3.13;;;32.70;27.10;;;;;;21092136;28;20051;-59
2023/07/13 20:37:38;;;;;;;6.60;2.97;;;32.60;27.30;;;;;;21093010;28;20093;-57
2023/07/13 20:47:40;;;;;;;4.53;3.35;;;32.40;27.80;;;;;;21089762;28;20051;-56
2023/07/13 20:57:41;;;;;;;6.03;3.28;;;32.20;28.70;;;;;;21090276;28;20040;-57
2023/07/13 21:07:42;;;;;;;4.60;3.40;;;32.10;29.40;;;;;;21088400;28;20123;-57
2023/07/13 21:17:46;;;;;;;4.00;2.90;;;31.90;30.20;;;;;;21089032;28;20070;-57
2023/07/13 21:28:00;;;;;;;5.32;2.95;;;31.80;30.50;;;;;;21088296;28;20051;-57
2023/07/13 21:38:01;;;;;;;3.95;3.13;;;31.70;30.90;;;;;;21085840;28;20081;-57
2023/07/13 21:48:02;;;;;;;4.00;2.88;;;31.60;31.10;;;;;;21086211;28;20036;-57
2023/07/13 21:58:12;;;;;;;5.38;3.42;;;31.30;31.20;;;;;;21085672;28;20040;-57
2023/07/13 22:08:13;;;;;;;;;;;31.10;31.30;;;;;;21085151;28;20453;-57
2023/07/13 22:18:21;;;;;;;4.65;2.67;;;30.90;31.60;;;;;;21083874;28;19920;-57
2023/07/13 22:28:24;;;;;;;3.75;2.88;;;30.80;31.60;;;;;;21081943;28;20523;-56
2023/07/13 22:38:35;;;;;;;3.85;2.53;;;30.60;31.60;;;;;;21081662;28;20073;-57
2023/07/13 22:48:42;;;;;;;3.50;2.53;;;30.50;31.40;;;;;;21081571;28;20044;-57
2023/07/13 22:58:43;;;;;;;7.75;2.75;;;30.40;31.40;;;;;;21081106;28;20044;-56
2023/07/13 23:08:44;;;;;;;7.00;4.07;;;30.20;31.70;;;;;;21080275;28;20050;-57
2023/07/13 23:18:46;;;;;;;8.57;6.63;;;30.00;32.30;;;;;;21078856;28;20093;-57
2023/07/13 23:28:48;;;;;;;3.90;2.90;;;29.80;32.60;;;;;;21078374;28;20071;-57
2023/07/13 23:38:50;;;;;;;10.55;7.47;;;29.80;32.50;;;;;;21079236;28;20446;-57
2023/07/13 23:48:58;;;;;;;5.72;3.28;;;29.60;33.10;;;;;;21078905;28;20046;-57
2023/07/13 23:58:59;;;;;;;5.85;3.20;;;29.60;33.00;;;;;;21095445;28;20123;-57
